Time;durP1;ratioP1;P1;durP2;ratioP2;P2;SDS_P1;SDS_P2;PMS_P1;PMS_P2;Temp;Humidity;BMP_temperature;BMP_pressure;BME280_temperature;BME280_humidity;BME280_pressure;Samples;Min_cycle;Max_cycle;Signal;HPM_P1;HPM_P2
2023/03/01 00:01:49;;;;;;;7.82;6.35;;;;;;;2.45;89.74;94321.56;5051989;28;20110;-77
2023/03/01 00:04:15;;;;;;;10.75;6.63;;;;;;;2.17;89.98;94302.69;5052228;28;20438;-78
2023/03/01 00:06:47;;;;;;;10.07;6.22;;;;;;;2.25;90.72;94324.03;5050496;28;20040;-77
2023/03/01 00:09:14;;;;;;;7.75;5.93;;;;;;;2.39;90.12;94306.03;5052935;28;20124;-77
2023/03/01 00:11:40;;;;;;;9.23;6.60;;;;;;;2.47;89.34;94302.94;5052666;28;20508;-78
2023/03/01 00:14:06;;;;;;;8.98;6.07;;;;;;;2.97;88.46;94307.78;5048953;28;20327;-77
2023/03/01 00:16:40;;;;;;;6.53;5.78;;;;;;;2.80;87.60;94307.94;5051040;28;20060;-77
2023/03/01 00:19:07;;;;;;;7.38;5.30;;;;;;;3.04;87.18;94297.06;5048067;28;20093;-76
2023/03/01 00:21:34;;;;;;;6.18;4.80;;;;;;;3.04;85.94;94297.81;5050957;28;20132;-76
2023/03/01 00:24:01;;;;;;;6.75;5.70;;;;;;;2.97;86.34;94284.94;5050262;28;20030;-78
2023/03/01 00:26:26;;;;;;;8.38;5.65;;;;;;;2.97;86.00;94282.31;5053928;28;20029;-77
2023/03/01 00:28:52;;;;;;;11.90;7.75;;;;;;;2.97;86.36;94273.63;5049595;28;20033;-78
2023/03/01 00:31:20;;;;;;;10.52;6.55;;;;;;;3.25;85.59;94273.25;5051292;28;20013;-77
2023/03/01 00:33:46;;;;;;;8.02;6.32;;;;;;;2.94;85.68;94253.09;5049886;28;20037;-78
2023/03/01 00:36:13;;;;;;;8.50;6.90;;;;;;;2.87;86.08;94270.94;5052639;28;20173;-77
2023/03/01 00:38:41;;;;;;;7.10;6.40;;;;;;;2.28;88.50;94263.16;5046036;28;20041;-79
2023/03/01 00:41:08;;;;;;;8.23;6.93;;;;;;;2.24;89.35;94272.59;5048789;28;20079;-76
2023/03/01 00:43:36;;;;;;;7.55;6.38;;;;;;;2.01;90.24;94268.44;5051168;28;20013;-78
2023/03/01 00:46:04;;;;;;;7.63;6.93;;;;;;;1.88;90.73;94247.06;5051246;28;20815;-76
2023/03/01 00:48:29;;;;;;;9.48;7.90;;;;;;;1.94;91.34;94272.31;5049827;28;20041;-78
2023/03/01 00:50:54;;;;;;;7.53;6.07;;;;;;;1.58;91.96;94240.44;5050459;28;20035;-78
2023/03/01 00:53:20;;;;;;;8.23;6.70;;;;;;;1.68;92.08;94248.41;5052651;28;20045;-77
2023/03/01 00:55:45;;;;;;;7.53;6.22;;;;;;;1.76;92.62;94259.50;5049476;28;20598;-77
2023/03/01 00:58:10;;;;;;;6.30;5.40;;;;;;;1.70;92.39;94250.00;5052282;28;20340;-76
2023/03/01 01:00:36;;;;;;;6.90;4.93;;;;;;;1.85;92.08;94252.78;5058592;28;20068;-77
2023/03/01 01:03:02;;;;;;;6.95;5.55;;;;;;;1.64;92.65;94275.38;5058225;28;20044;-75
2023/03/01 01:05:27;;;;;;;7.82;5.68;;;;;;;1.42;92.62;94222.97;5052546;28;20041;-77
2023/03/01 01:07:52;;;;;;;5.43;4.72;;;;;;;1.56;92.67;94245.16;5050008;28;20068;-77
2023/03/01 01:10:18;;;;;;;6.57;5.15;;;;;;;1.63;92.79;94268.53;5052450;28;20053;-76
2023/03/01 01:12:46;;;;;;;9.40;4.90;;;;;;;1.78;92.18;94267.91;5051445;28;20104;-75
2023/03/01 01:15:14;;;;;;;5.45;4.50;;;;;;;1.73;91.64;94239.81;5049474;28;20049;-77
2023/03/01 01:17:39;;;;;;;6.30;4.65;;;;;;;1.84;91.25;94256.44;5050481;28;20036;-76
2023/03/01 01:20:06;;;;;;;5.55;4.40;;;;;;;1.87;90.31;94266.44;5048077;28;20090;-78
2023/03/01 01:22:31;;;;;;;4.18;3.65;;;;;;;1.89;90.41;94264.38;5049759;28;20243;-77
2023/03/01 01:24:56;;;;;;;5.97;4.40;;;;;;;1.65;90.37;94254.16;5049946;28;20078;-75
2023/03/01 01:27:22;;;;;;;6.10;4.35;;;;;;;1.67;90.21;94248.66;5071333;28;20037;-77
2023/03/01 01:29:48;;;;;;;5.07;4.15;;;;;;;1.98;90.10;94268.13;5055486;28;20032;-77
2023/03/01 01:32:13;;;;;;;4.88;4.32;;;;;;;2.05;89.74;94269.53;5057738;28;20041;-77
2023/03/01 01:34:39;;;;;;;4.35;3.70;;;;;;;1.74;90.49;94272.84;5052546;28;20128;-76
2023/03/01 01:37:07;;;;;;;4.90;4.18;;;;;;;1.89;89.67;94253.88;5052734;28;20706;-78
2023/03/01 01:39:33;;;;;;;5.45;4.45;;;;;;;2.42;88.59;94261.69;5052126;28;20101;-77
2023/03/01 01:42:00;;;;;;;4.25;3.85;;;;;;;2.55;86.04;94268.34;5052204;28;20039;-77
2023/03/01 01:44:27;;;;;;;3.97;3.58;;;;;;;2.55;86.39;94268.34;5051805;28;20041;-78
2023/03/01 01:47:03;;;;;;;3.67;3.22;;;;;;;2.13;86.18;94244.66;5052226;28;20071;-78
2023/03/01 01:49:36;;;;;;;3.45;3.15;;;;;;;2.19;87.22;94279.63;5069330;28;20089;-77
2023/03/01 01:52:07;;;;;;;3.90;3.45;;;;;;;2.13;86.90;94247.28;5055196;28;20680;-75
2023/03/01 01:54:39;;;;;;;3.85;3.30;;;;;;;2.73;85.48;94281.09;5053864;28;20533;-78
2023/03/01 01:57:11;;;;;;;3.22;3.00;;;;;;;2.68;84.58;94280.28;5045560;28;20041;-77
2023/03/01 01:59:37;;;;;;;4.00;3.13;;;;;;;2.06;86.22;94251.94;5054253;28;20040;-78
2023/03/01 02:02:04;;;;;;;3.50;3.20;;;;;;;2.30;86.08;94271.59;5055413;28;20045;-77
2023/03/01 02:04:31;;;;;;;3.80;3.40;;;;;;;2.31;86.01;94272.34;5062815;28;20076;-76
2023/03/01 02:07:03;;;;;;;3.50;3.20;;;;;;;2.40;85.40;94245.41;5063683;28;20036;-77
2023/03/01 02:09:30;;;;;;;3.60;3.28;;;;;;;1.93;86.40;94247.09;5057613;28;20489;-76
2023/03/01 02:11:57;;;;;;;3.58;3.28;;;;;;;1.86;87.33;94243.88;5053950;28;20037;-76
2023/03/01 02:14:22;;;;;;;3.75;3.45;;;;;;;2.38;86.37;94258.00;5054476;28;20208;-76
2023/03/01 02:16:48;;;;;;;3.10;2.85;;;;;;;1.94;86.37;94233.75;5055177;28;20184;-78
2023/03/01 02:19:41;;;;;;;4.20;3.63;;;;;;;1.92;87.26;94233.19;5054819;28;20025;-76
2023/03/01 02:22:19;;;;;;;3.63;3.33;;;;;;;1.90;87.50;94250.22;5051293;28;20104;-79
2023/03/01 02:25:03;;;;;;;3.22;3.03;;;;;;;1.86;88.01;94254.38;5068354;28;20037;-77
2023/03/01 02:27:41;;;;;;;4.00;3.40;;;;;;;1.52;88.82;94244.03;5055786;28;20037;-78
2023/03/01 02:30:07;;;;;;;3.70;3.40;;;;;;;1.55;88.94;94234.91;5051156;28;20033;-78
2023/03/01 02:32:34;;;;;;;3.78;3.47;;;;;;;1.63;89.08;94253.59;5052336;28;20097;-78
2023/03/01 02:34:59;;;;;;;3.83;3.53;;;;;;;1.60;89.40;94264.59;5055126;28;20033;-78
2023/03/01 02:37:26;;;;;;;3.83;3.47;;;;;;;1.48;89.62;94268.38;5049820;28;20055;-80
2023/03/01 02:40:02;;;;;;;4.22;3.85;;;;;;;1.54;89.40;94270.00;5053746;28;20453;-76
2023/03/01 02:42:36;;;;;;;4.38;3.65;;;;;;;1.63;89.26;94266.72;5053705;28;20116;-75
2023/03/01 02:45:02;;;;;;;4.43;4.03;;;;;;;1.22;89.92;94230.63;5052129;28;20029;-75
2023/03/01 02:47:28;;;;;;;4.38;3.97;;;;;;;1.32;90.61;94254.31;5054603;28;20040;-76
2023/03/01 02:49:53;;;;;;;5.20;4.70;;;;;;;1.25;90.74;94256.31;5054026;28;20041;-76
2023/03/01 02:52:45;;;;;;;5.22;4.72;;;;;;;1.22;91.30;94262.06;5051735;28;20026;-77
2023/03/01 02:55:16;;;;;;;5.05;4.55;;;;;;;1.10;91.82;94241.22;5052644;28;20099;-76
2023/03/01 02:57:43;;;;;;;5.43;4.40;;;;;;;1.22;92.00;94259.44;5052437;28;20033;-76
2023/03/01 03:00:18;;;;;;;5.75;5.15;;;;;;;1.26;92.23;94265.78;5051533;28;20034;-76
2023/03/01 03:02:48;;;;;;;5.60;4.63;;;;;;;1.20;92.09;94248.41;5051201;28;20534;-77
2023/03/01 03:05:20;;;;;;;6.68;5.43;;;;;;;1.14;92.68;94251.97;5051417;28;20076;-76
2023/03/01 03:07:47;;;;;;;6.57;5.88;;;;;;;1.11;92.87;94247.25;5054413;28;20024;-78
2023/03/01 03:10:20;;;;;;;8.35;7.07;;;;;;;1.05;93.12;94230.66;5067042;28;20014;-75
2023/03/01 03:12:55;;;;;;;7.18;6.40;;;;;;;1.16;93.17;94248.09;5059853;28;20040;-76
2023/03/01 03:15:22;;;;;;;9.32;7.05;;;;;;;1.23;93.26;94256.56;5051208;28;20044;-77
2023/03/01 03:17:49;;;;;;;8.13;6.97;;;;;;;1.29;93.01;94262.66;5049318;28;20033;-77
2023/03/01 03:20:18;;;;;;;9.02;7.43;;;;;;;0.89;93.13;94212.41;5050786;28;20044;-76
2023/03/01 03:22:49;;;;;;;9.55;7.63;;;;;;;1.12;93.39;94259.31;5052818;28;20057;-76
2023/03/01 03:25:15;;;;;;;10.23;7.68;;;;;;;1.22;93.76;94256.81;5053189;28;20020;-77
2023/03/01 03:27:43;;;;;;;8.98;8.02;;;;;;;1.17;93.29;94247.06;5048607;28;20041;-78
2023/03/01 03:30:13;;;;;;;10.10;7.47;;;;;;;1.19;93.42;94255.47;5051226;28;20055;-76
2023/03/01 03:32:40;;;;;;;9.32;7.53;;;;;;;0.96;93.73;94224.28;5049842;28;20032;-77
2023/03/01 03:35:09;;;;;;;12.05;9.23;;;;;;;1.17;93.50;94247.06;5050244;28;20029;-77
2023/03/01 03:40:28;;;;;;;9.65;7.80;;;;;;;1.28;92.82;94247.97;5046610;28;20024;-78
2023/03/01 03:42:54;;;;;;;11.93;8.57;;;;;;;1.29;92.81;94252.16;5047070;28;20412;-76
2023/03/01 03:45:38;;;;;;;11.40;8.10;;;;;;;1.32;92.55;94256.94;5047580;28;20033;-77
2023/03/01 03:48:14;;;;;;;9.55;7.60;;;;;;;1.23;92.83;94237.41;5044678;28;20680;-77
2023/03/01 03:50:41;;;;;;;12.05;8.43;;;;;;;1.24;93.11;94259.97;5053490;28;20033;-77
2023/03/01 03:53:11;;;;;;;10.75;7.75;;;;;;;1.17;92.54;94246.28;5047099;28;20529;-79
2023/03/01 03:55:38;;;;;;;10.57;8.35;;;;;;;1.17;92.98;94251.50;5047037;28;20035;-77
2023/03/01 03:58:09;;;;;;;11.13;8.38;;;;;;;1.20;92.86;94243.16;5053353;28;20028;-78
2023/03/01 04:00:58;;;;;;;13.70;9.57;;;;;;;1.12;93.34;94238.34;5049336;28;20128;-79
2023/03/01 04:03:26;;;;;;;11.02;7.85;;;;;;;1.11;93.63;94258.50;5046596;28;20180;-77
2023/03/01 04:05:52;;;;;;;11.32;8.48;;;;;;;1.18;93.80;94255.72;5048623;28;20038;-77
2023/03/01 04:08:20;;;;;;;11.38;7.78;;;;;;;1.15;93.54;94250.94;5045599;28;20663;-78
2023/03/01 04:10:49;;;;;;;10.07;6.85;;;;;;;1.11;93.71;94242.78;5049814;28;20071;-78
2023/03/01 04:13:17;;;;;;;11.02;6.75;;;;;;;1.25;93.41;94253.69;5070118;28;20083;-75
2023/03/01 04:15:43;;;;;;;10.48;7.43;;;;;;;1.18;93.16;94259.09;5062873;28;20033;-76
2023/03/01 04:18:12;;;;;;;11.82;7.20;;;;;;;1.17;93.64;94264.63;5054549;28;20037;-76
2023/03/01 04:20:38;;;;;;;9.05;7.18;;;;;;;1.10;93.48;94248.28;5047859;28;20048;-78
2023/03/01 04:23:20;;;;;;;8.07;6.90;;;;;;;1.04;93.42;94230.91;5062321;28;20091;-76
2023/03/01 04:25:53;;;;;;;9.27;7.60;;;;;;;0.96;93.75;94249.66;5064019;28;20046;-77
2023/03/01 04:28:26;;;;;;;10.55;6.85;;;;;;;1.24;93.56;94267.81;5048414;28;20047;-77
2023/03/01 04:30:53;;;;;;;8.57;6.70;;;;;;;1.21;93.54;94274.38;5049822;28;20048;-77
2023/03/01 04:33:19;;;;;;;7.88;5.40;;;;;;;1.02;93.68;94256.56;5047930;28;20152;-77
2023/03/01 04:35:45;;;;;;;8.32;7.07;;;;;;;0.98;93.90;94263.31;5046200;28;20586;-77
2023/03/01 04:38:10;;;;;;;7.78;6.57;;;;;;;0.89;94.23;94246.44;5048753;28;20029;-76
2023/03/01 04:40:36;;;;;;;9.07;6.82;;;;;;;1.06;94.22;94266.31;5047836;28;20105;-77
2023/03/01 04:43:03;;;;;;;9.13;6.60;;;;;;;1.02;94.25;94269.66;5048009;28;20514;-76
2023/03/01 04:45:29;;;;;;;8.80;6.82;;;;;;;0.90;94.31;94240.94;5044877;28;20056;-77
2023/03/01 04:47:57;;;;;;;7.68;6.30;;;;;;;0.94;94.10;94242.03;5045258;28;20034;-76
2023/03/01 04:50:23;;;;;;;11.70;7.28;;;;;;;1.03;93.90;94250.28;5049839;28;20130;-76
2023/03/01 04:52:49;;;;;;;8.10;6.15;;;;;;;1.03;94.30;94258.94;5045688;28;20041;-77
2023/03/01 04:55:15;;;;;;;10.07;7.30;;;;;;;0.97;94.05;94243.41;5046577;28;20032;-76
2023/03/01 04:57:40;;;;;;;10.70;7.68;;;;;;;1.07;94.07;94261.88;5044778;28;20033;-77
2023/03/01 05:00:22;;;;;;;9.43;7.07;;;;;;;1.00;94.15;94261.22;5043867;28;20476;-75
2023/03/01 05:02:53;;;;;;;9.20;6.63;;;;;;;0.98;94.25;94255.47;5045631;28;20093;-76
2023/03/01 05:05:20;;;;;;;10.65;6.75;;;;;;;0.89;94.88;94256.91;5060888;28;20485;-78
2023/03/01 05:07:45;;;;;;;10.38;7.50;;;;;;;0.83;95.46;94250.03;5044160;28;20083;-78
2023/03/01 05:10:10;;;;;;;11.48;7.85;;;;;;;0.87;95.15;94241.44;5047929;28;20368;-77
2023/03/01 05:12:37;;;;;;;9.55;7.18;;;;;;;0.89;94.81;94246.44;5047818;28;20625;-79
2023/03/01 05:15:06;;;;;;;8.50;6.78;;;;;;;0.91;95.05;94250.41;5046617;28;20592;-76
2023/03/01 05:17:33;;;;;;;10.35;8.02;;;;;;;0.91;94.39;94247.78;5052578;28;20057;-76
2023/03/01 05:19:59;;;;;;;11.48;6.72;;;;;;;0.93;94.73;94244.91;5060059;28;20039;-76
2023/03/01 05:22:27;;;;;;;7.18;6.47;;;;;;;0.96;94.16;94241.81;5056307;28;20053;-78
2023/03/01 05:24:53;;;;;;;9.25;6.15;;;;;;;0.90;93.95;94246.19;5051782;28;20100;-77
2023/03/01 05:27:21;;;;;;;6.72;6.03;;;;;;;0.94;93.97;94243.88;5044911;28;20034;-76
2023/03/01 05:29:47;;;;;;;7.03;5.28;;;;;;;1.07;94.04;94262.66;5049958;28;20045;-77
2023/03/01 05:32:15;;;;;;;7.97;5.70;;;;;;;1.02;93.58;94256.56;5046292;28;20040;-77
2023/03/01 05:34:42;;;;;;;6.63;5.45;;;;;;;1.13;93.02;94258.28;5046408;28;20052;-78
2023/03/01 05:37:08;;;;;;;8.43;5.78;;;;;;;0.88;93.20;94216.84;5054476;28;20028;-77
2023/03/01 05:39:34;;;;;;;9.13;6.63;;;;;;;0.90;92.95;94221.81;5046907;28;20136;-77
2023/03/01 05:42:01;;;;;;;7.50;6.28;;;;;;;0.73;92.72;94200.94;5044273;28;20056;-77
2023/03/01 05:44:28;;;;;;;8.10;5.40;;;;;;;1.19;92.30;94254.66;5062436;28;20032;-77
2023/03/01 05:46:54;;;;;;;7.47;6.35;;;;;;;1.11;92.21;94247.25;5045664;28;20091;-76
2023/03/01 05:49:20;;;;;;;11.10;7.00;;;;;;;0.97;91.79;94230.31;5048085;28;20025;-77
2023/03/01 05:51:51;;;;;;;6.18;5.57;;;;;;;1.25;91.46;94264.19;5043623;28;20040;-78
2023/03/01 05:54:18;;;;;;;8.88;5.45;;;;;;;1.21;90.81;94253.41;5045987;28;20063;-77
2023/03/01 05:56:44;;;;;;;7.35;5.13;;;;;;;1.34;90.50;94278.44;5044876;28;20043;-76
2023/03/01 05:59:10;;;;;;;7.50;4.75;;;;;;;1.23;89.76;94261.00;5045017;28;20029;-78
2023/03/01 06:01:36;;;;;;;4.75;4.20;;;;;;;1.46;89.47;94283.56;5046644;28;20029;-77
2023/03/01 06:04:05;;;;;;;4.93;3.55;;;;;;;1.31;88.88;94250.09;5047888;28;20030;-76
2023/03/01 06:06:34;;;;;;;7.32;4.47;;;;;;;1.38;88.19;94263.81;5046533;28;20029;-77
2023/03/01 06:09:00;;;;;;;5.57;4.22;;;;;;;1.58;87.92;94282.38;5045073;28;20124;-77
2023/03/01 06:11:25;;;;;;;5.95;4.28;;;;;;;1.46;87.75;94259.97;5046462;28;20076;-77
2023/03/01 06:13:50;;;;;;;4.53;3.92;;;;;;;1.51;87.29;94279.19;5048655;28;20033;-77
2023/03/01 06:16:16;;;;;;;3.50;3.13;;;;;;;1.51;87.38;94284.41;5051425;28;20035;-77
2023/03/01 06:18:42;;;;;;;5.40;4.00;;;;;;;1.67;86.93;94295.84;5055702;28;20037;-76
2023/03/01 06:21:08;;;;;;;6.15;3.60;;;;;;;1.48;87.50;94305.84;5050996;28;20073;-76
2023/03/01 06:23:38;;;;;;;4.25;3.38;;;;;;;1.64;87.41;94299.75;5059616;28;20263;-76
2023/03/01 06:26:08;;;;;;;4.43;3.40;;;;;;;1.54;86.93;94297.03;5061420;28;20040;-76
2023/03/01 06:28:33;;;;;;;6.30;3.83;;;;;;;1.35;86.95;94274.78;5056790;28;20036;-78
2023/03/01 06:30:59;;;;;;;6.30;3.45;;;;;;;1.58;87.23;94290.25;5066926;28;20021;-77
2023/03/01 06:33:24;;;;;;;4.95;3.35;;;;;;;1.73;87.38;94302.75;5052205;28;20028;-77
2023/03/01 06:35:50;;;;;;;6.13;3.95;;;;;;;1.72;87.25;94292.50;5052002;28;20041;-76
2023/03/01 06:38:18;;;;;;;12.05;4.78;;;;;;;1.52;87.19;94272.09;5049839;28;20040;-76
2023/03/01 06:40:43;;;;;;;4.93;4.00;;;;;;;1.58;87.31;94292.06;5050468;28;20456;-76
2023/03/01 06:43:09;;;;;;;5.75;4.07;;;;;;;1.81;86.80;94304.94;5051371;28;20029;-78
2023/03/01 06:45:34;;;;;;;4.03;3.03;;;;;;;1.80;86.12;94305.19;5049276;28;20052;-78
2023/03/01 06:48:04;;;;;;;6.72;3.50;;;;;;;1.66;86.05;94302.94;5050489;28;20049;-77
2023/03/01 06:50:30;;;;;;;6.53;3.33;;;;;;;1.61;85.97;94287.16;5051040;28;20037;-77
2023/03/01 06:52:56;;;;;;;3.22;2.30;;;;;;;1.64;85.38;94288.47;5054225;28;20097;-78
2023/03/01 06:55:21;;;;;;;6.13;2.60;;;;;;;1.60;85.20;94288.19;5047258;28;20036;-78
2023/03/01 06:57:47;;;;;;;4.05;3.05;;;;;;;1.74;85.00;94303.53;5048308;28;20128;-77
2023/03/01 07:00:13;;;;;;;2.72;2.47;;;;;;;1.47;85.21;94285.91;5049139;28;20112;-80
2023/03/01 07:02:38;;;;;;;3.33;2.53;;;;;;;1.70;85.16;94305.84;5049230;28;20041;-78
2023/03/01 07:05:04;;;;;;;7.47;2.55;;;;;;;1.74;85.35;94303.53;5050371;28;20044;-76
2023/03/01 07:07:29;;;;;;;4.15;3.10;;;;;;;1.70;85.47;94294.56;5048845;28;20618;-77
2023/03/01 07:09:55;;;;;;;3.72;3.08;;;;;;;1.82;85.27;94316.19;5049159;28;20083;-78
2023/03/01 07:12:20;;;;;;;5.18;3.60;;;;;;;1.67;85.35;94294.00;5048811;28;20038;-78
2023/03/01 07:14:46;;;;;;;8.40;4.03;;;;;;;1.80;85.83;94305.19;5045730;28;20364;-77
2023/03/01 07:17:11;;;;;;;8.10;4.93;;;;;;;1.73;86.58;94286.22;5045403;28;20064;-78
2023/03/01 07:19:37;;;;;;;8.30;4.32;;;;;;;1.80;86.11;94307.81;5049719;28;20025;-78
2023/03/01 07:22:04;;;;;;;8.50;5.07;;;;;;;2.05;86.22;94302.84;5051560;28;20120;-77
2023/03/01 07:24:29;;;;;;;6.65;4.63;;;;;;;2.00;85.87;94298.34;5050537;28;20444;-79
2023/03/01 07:26:54;;;;;;;12.48;4.95;;;;;;;1.71;87.09;94278.59;5052735;28;20032;-79
2023/03/01 07:29:22;;;;;;;6.03;4.68;;;;;;;1.66;87.18;94271.47;5059338;28;20041;-75
2023/03/01 07:31:47;;;;;;;8.80;5.38;;;;;;;1.84;87.58;94299.19;5054076;28;20044;-77
2023/03/01 07:34:13;;;;;;;9.45;4.68;;;;;;;1.93;87.25;94294.31;5049010;28;20074;-78
2023/03/01 07:36:39;;;;;;;5.60;3.88;;;;;;;1.87;85.89;94287.44;5047560;28;20037;-77
2023/03/01 07:39:04;;;;;;;5.07;4.35;;;;;;;1.89;85.38;94280.13;5065493;28;20053;-76
2023/03/01 07:41:30;;;;;;;5.30;4.13;;;;;;;2.03;85.28;94292.59;5045275;28;20587;-78
2023/03/01 07:43:55;;;;;;;8.00;4.40;;;;;;;1.94;84.83;94277.53;5046240;28;20090;-77
2023/03/01 07:46:21;;;;;;;4.03;3.38;;;;;;;2.06;84.50;94291.28;5049561;28;20562;-75
2023/03/01 07:48:47;;;;;;;5.88;4.57;;;;;;;1.92;84.87;94256.81;5048744;28;20543;-78
2023/03/01 07:51:13;;;;;;;6.72;4.28;;;;;;;2.16;84.84;94285.38;5047975;28;20042;-77
2023/03/01 07:53:38;;;;;;;6.55;4.57;;;;;;;2.31;84.67;94282.84;5049677;28;20144;-77
2023/03/01 07:56:06;;;;;;;7.07;4.32;;;;;;;2.35;84.04;94271.59;5044888;28;20132;-78
2023/03/01 07:58:35;;;;;;;5.03;2.80;;;;;;;2.05;83.09;94258.25;5045728;28;20033;-78
2023/03/01 08:01:02;;;;;;;3.33;2.85;;;;;;;2.23;82.41;94285.94;5049780;28;20060;-78
2023/03/01 08:03:27;;;;;;;7.10;3.35;;;;;;;2.13;82.39;94255.16;5048001;28;20033;-78
2023/03/01 08:05:53;;;;;;;5.13;2.72;;;;;;;2.21;81.73;94273.06;5045522;28;20037;-78
2023/03/01 08:08:18;;;;;;;4.22;3.15;;;;;;;2.17;82.46;94261.50;5047584;28;20037;-79
2023/03/01 08:10:44;;;;;;;5.82;3.45;;;;;;;2.26;82.55;94278.34;5045107;28;20027;-78
2023/03/01 08:13:09;;;;;;;4.82;3.35;;;;;;;2.05;81.97;94258.25;5046313;28;20052;-77
2023/03/01 08:15:34;;;;;;;3.92;3.40;;;;;;;2.04;82.44;94256.66;5045639;28;20040;-77
2023/03/01 08:18:00;;;;;;;3.88;3.50;;;;;;;2.19;81.90;94264.66;5046478;28;20043;-77
2023/03/01 08:20:26;;;;;;;3.42;3.03;;;;;;;2.13;81.47;94260.41;5046708;28;20072;-77
2023/03/01 08:22:51;;;;;;;3.72;2.80;;;;;;;2.29;81.52;94287.59;5044191;28;20049;-77
2023/03/01 08:25:17;;;;;;;4.38;3.88;;;;;;;2.27;81.66;94277.31;5049558;28;20022;-77
2023/03/01 08:27:42;;;;;;;3.53;3.20;;;;;;;2.33;81.00;94265.03;5044945;28;22106;-78
2023/03/01 08:30:08;;;;;;;4.35;3.58;;;;;;;2.71;80.61;94283.19;5047803;28;20053;-77
2023/03/01 08:32:38;;;;;;;3.90;3.53;;;;;;;2.68;79.44;94269.75;5056834;28;20037;-77
2023/03/01 08:35:04;;;;;;;4.88;3.42;;;;;;;2.79;79.88;94281.94;5055939;28;20511;-77
2023/03/01 08:37:33;;;;;;;4.20;3.35;;;;;;;2.74;79.71;94250.38;5043644;28;20035;-77
2023/03/01 08:40:03;;;;;;;4.72;3.75;;;;;;;3.05;79.45;94278.41;5045777;28;20029;-76
2023/03/01 08:42:29;;;;;;;7.10;4.25;;;;;;;2.83;79.41;94264.63;5049441;28;20441;-78
2023/03/01 08:44:56;;;;;;;5.72;3.85;;;;;;;2.76;79.41;94283.22;5045999;28;20044;-78
2023/03/01 08:47:22;;;;;;;3.47;3.17;;;;;;;2.67;79.69;94274.22;5063244;28;20037;-79
2023/03/01 08:49:49;;;;;;;6.68;3.65;;;;;;;2.73;79.22;94260.09;5046083;28;20044;-78
2023/03/01 08:52:14;;;;;;;6.05;3.47;;;;;;;2.75;79.58;94283.44;5045447;28;20056;-79
2023/03/01 08:54:40;;;;;;;3.72;3.40;;;;;;;2.65;78.65;94257.13;5045553;28;20040;-78
2023/03/01 08:57:05;;;;;;;4.15;3.30;;;;;;;2.68;78.57;94264.50;5044550;28;20064;-77
2023/03/01 08:59:35;;;;;;;4.22;3.55;;;;;;;2.79;78.63;94284.56;5041628;28;20051;-77
2023/03/01 09:02:00;;;;;;;5.00;3.47;;;;;;;2.82;78.68;94260.41;5046438;28;20958;-78
2023/03/01 09:04:26;;;;;;;5.85;3.88;;;;;;;3.33;77.87;94280.63;5043831;28;20094;-78
2023/03/01 09:06:51;;;;;;;5.22;3.13;;;;;;;3.18;77.04;94271.91;5047697;28;20491;-78
2023/03/01 09:09:17;;;;;;;4.82;3.45;;;;;;;3.20;77.28;94257.44;5043778;28;20082;-78
2023/03/01 09:11:45;;;;;;;3.70;3.17;;;;;;;3.25;76.86;94275.88;5044089;28;20323;-77
2023/03/01 09:14:12;;;;;;;8.50;3.95;;;;;;;3.17;77.27;94281.63;5041712;28;20037;-78
2023/03/01 09:16:37;;;;;;;6.20;3.28;;;;;;;3.02;77.54;94278.91;5044885;28;20044;-77
2023/03/01 09:19:03;;;;;;;6.75;3.72;;;;;;;3.00;77.90;94281.00;5044034;28;20028;-77
2023/03/01 09:21:29;;;;;;;4.90;4.43;;;;;;;3.05;78.09;94246.84;5046753;28;20061;-78
2023/03/01 09:23:57;;;;;;;6.80;4.57;;;;;;;2.99;78.13;94253.13;5043994;28;20053;-78
2023/03/01 09:26:23;;;;;;;5.07;3.72;;;;;;;2.99;78.19;94250.50;5045934;28;20040;-77
2023/03/01 09:28:53;;;;;;;5.72;4.20;;;;;;;3.15;78.15;94275.81;5044271;28;20041;-77
2023/03/01 09:31:20;;;;;;;4.72;4.18;;;;;;;3.40;77.52;94265.44;5047300;28;20244;-77
2023/03/01 09:33:47;;;;;;;6.72;3.60;;;;;;;3.21;77.13;94256.41;5042985;28;20037;-76
2023/03/01 09:36:19;;;;;;;5.30;3.88;;;;;;;3.25;77.73;94261.94;5059262;28;20045;-77
2023/03/01 09:38:45;;;;;;;4.03;3.33;;;;;;;3.21;77.46;94260.88;5075913;28;20037;-77
2023/03/01 09:41:14;;;;;;;7.03;3.33;;;;;;;3.32;77.35;94268.56;5050467;28;20690;-78
2023/03/01 09:43:45;;;;;;;5.35;3.63;;;;;;;3.29;76.91;94268.25;5059644;28;20040;-78
2023/03/01 09:46:16;;;;;;;5.18;3.63;;;;;;;3.13;77.33;94259.53;5048070;28;20033;-78
2023/03/01 09:48:46;;;;;;;5.10;3.70;;;;;;;3.05;77.84;94251.31;5050125;28;20037;-77
2023/03/01 09:51:19;;;;;;;4.40;3.03;;;;;;;3.27;77.24;94250.13;5047389;28;20048;-78
2023/03/01 09:53:45;;;;;;;3.85;3.42;;;;;;;3.26;77.51;94242.50;5047812;28;20029;-78
2023/03/01 09:56:29;;;;;;;4.13;3.60;;;;;;;3.28;77.19;94251.69;5041757;28;20052;-78
2023/03/01 09:59:13;;;;;;;3.97;3.58;;;;;;;2.97;77.14;94216.63;5045696;28;20064;-77
2023/03/01 10:01:59;;;;;;;3.80;3.25;;;;;;;3.07;77.56;94223.75;5049407;28;20032;-78
2023/03/01 10:04:48;;;;;;;5.25;3.78;;;;;;;3.29;77.14;94240.13;5063286;28;20024;-78
2023/03/01 10:07:43;;;;;;;5.07;3.17;;;;;;;3.43;77.09;94232.56;5043415;28;20041;-78
2023/03/01 10:10:25;;;;;;;7.25;3.80;;;;;;;3.53;77.17;94239.69;5045592;28;20065;-77
2023/03/01 10:12:51;;;;;;;5.63;4.05;;;;;;;3.27;77.51;94223.06;5045439;28;20643;-78
2023/03/01 10:15:39;;;;;;;5.78;4.00;;;;;;;3.15;77.43;94175.16;5047803;28;20042;-79
2023/03/01 10:18:12;;;;;;;9.77;5.22;;;;;;;3.83;77.37;94227.41;5048161;28;20087;-78
2023/03/01 10:20:48;;;;;;;7.30;4.80;;;;;;;3.47;76.82;94236.28;5044261;28;20053;-78
2023/03/01 10:23:14;;;;;;;5.70;4.07;;;;;;;3.53;77.47;94218.66;5050086;28;20041;-79
2023/03/01 10:26:09;;;;;;;6.30;3.95;;;;;;;3.46;77.55;94226.81;5040141;28;20907;-78
2023/03/01 10:28:43;;;;;;;4.47;3.72;;;;;;;3.65;77.15;94217.38;5049112;28;20060;-78
2023/03/01 10:31:15;;;;;;;6.60;4.93;;;;;;;3.57;76.97;94217.09;5050002;28;20076;-79
2023/03/01 10:33:41;;;;;;;10.05;5.05;;;;;;;3.68;77.07;94216.06;5043849;28;20068;-78
2023/03/01 10:36:08;;;;;;;5.88;4.72;;;;;;;3.69;76.56;94212.38;5046734;28;20090;-78
2023/03/01 10:38:55;;;;;;;5.43;4.78;;;;;;;3.29;77.99;94215.69;5051211;28;20048;-77
2023/03/01 10:41:25;;;;;;;11.20;5.22;;;;;;;3.33;77.76;94216.78;5058965;28;20040;-78
2023/03/01 10:43:55;;;;;;;6.10;4.70;;;;;;;3.43;77.59;94208.13;5062235;28;20057;-78
2023/03/01 10:46:35;;;;;;;8.70;6.20;;;;;;;3.45;77.50;94203.38;5052816;28;20590;-77
2023/03/01 10:49:14;;;;;;;5.22;4.47;;;;;;;3.75;76.79;94213.97;5049491;28;20036;-78
2023/03/01 10:51:46;;;;;;;10.73;5.25;;;;;;;3.74;76.62;94186.09;5042886;28;20040;-79
2023/03/01 10:54:32;;;;;;;9.63;4.70;;;;;;;3.46;76.90;94184.72;5047871;28;20041;-79
2023/03/01 10:57:00;;;;;;;5.32;4.20;;;;;;;3.33;77.52;94196.50;5045796;28;20044;-78
2023/03/01 10:59:35;;;;;;;8.70;5.47;;;;;;;3.71;77.52;94215.56;5061203;28;20052;-79
2023/03/01 11:02:16;;;;;;;4.50;4.07;;;;;;;3.47;77.32;94223.13;5045369;28;20047;-77
2023/03/01 11:05:14;;;;;;;5.28;4.43;;;;;;;3.56;76.95;94186.59;5052320;28;20033;-78
2023/03/01 11:07:50;;;;;;;6.78;4.70;;;;;;;3.55;76.80;94216.56;5034677;28;20053;-78
2023/03/01 11:10:23;;;;;;;;;;;;;;;3.69;76.74;94225.53;5050418;28;20033;-79
2023/03/01 11:12:51;;;;;;;5.53;4.22;;;;;;;3.52;77.12;94219.72;5048326;28;20051;-79
2023/03/01 11:15:23;;;;;;;7.35;4.40;;;;;;;3.59;77.09;94215.78;5046516;28;20041;-79
2023/03/01 11:17:50;;;;;;;8.85;4.00;;;;;;;3.70;76.73;94200.81;5047354;28;20036;-79
2023/03/01 11:20:23;;;;;;;3.92;3.45;;;;;;;3.57;77.21;94225.00;5044560;28;20398;-77
2023/03/01 11:22:55;;;;;;;5.78;4.40;;;;;;;3.43;76.60;94185.22;5047376;28;20088;-78
2023/03/01 11:25:26;;;;;;;5.80;5.20;;;;;;;3.60;77.27;94219.19;5049286;28;20506;-78
2023/03/01 11:27:54;;;;;;;8.48;5.85;;;;;;;3.59;77.22;94218.41;5049432;28;20048;-79
2023/03/01 11:30:48;;;;;;;9.27;5.07;;;;;;;3.54;77.71;94218.41;5061203;28;20056;-76
2023/03/01 11:33:32;;;;;;;7.40;5.65;;;;;;;3.55;77.98;94209.47;5049529;28;20044;-78
2023/03/01 11:36:19;;;;;;;10.10;4.97;;;;;;;3.58;76.77;94198.41;5048470;28;20521;-78
2023/03/01 11:38:45;;;;;;;10.38;5.22;;;;;;;3.67;76.55;94206.59;5049680;28;20553;-79
2023/03/01 11:41:21;;;;;;;8.85;6.10;;;;;;;3.63;76.19;94195.00;5049054;28;20041;-78
2023/03/01 11:44:05;;;;;;;6.30;4.53;;;;;;;3.60;76.87;94201.59;5065032;28;20045;-78
2023/03/01 11:46:51;;;;;;;7.53;5.35;;;;;;;3.79;76.21;94189.53;5057405;28;20044;-77
2023/03/01 11:49:41;;;;;;;6.30;5.18;;;;;;;3.95;75.66;94187.69;5052211;28;20138;-78
2023/03/01 11:52:29;;;;;;;5.68;4.45;;;;;;;3.70;75.40;94177.94;5045613;28;20134;-79
2023/03/01 11:55:09;;;;;;;7.20;5.40;;;;;;;3.59;76.01;94180.78;5050499;28;20033;-79